Terminal Aerodrome Forecast
Issued by NWS

Home | Current Version | Previous Version | Graphics & Text | Print | Product List | Glossary On
Versions: 1 2 3 4 5 6 7 8 9 10 11 12 13 14 15 16 17
000
FTUS43 KOAX 222342
TAFCDR
TAF
KCDR 222342Z 2300/2324 24008KT P6SM SKC
     FM230300 28010KT P6SM SKC
     FM230900 30014KT P6SM BKN080
     FM231500 30015G25KT P6SM VCSH OVC035=

USA.gov is the U.S. government's official web portal to all federal, state and local government web resources and services.